Terminal Aerodrome Forecast
Issued by NWS

Current Version | Previous Version | Text Only | Print | Product List | Glossary On
Versions: 1 2 3 4 5 6 7 8 9 10 11 12 13 14 15 16 17 18 19 20 21
000
FTUS41 KPBZ 220520
TAFAGC
TAF
KAGC 220520Z 2206/2306 36008KT 6SM -RA OVC035
     FM221000 02010KT 3SM -RA OVC015
     FM221800 05010G18KT P6SM OVC010
     FM230200 05008KT P6SM OVC010=

USA.gov is the U.S. government's official web portal to all federal, state and local government web resources and services.